createdAt,value
2023-03-23T16:00:42.175Z,13.82
2023-03-23T16:05:46.173Z,13.77
2023-03-23T16:10:50.933Z,13.72
2023-03-23T16:15:54.315Z,13.68
2023-03-23T16:20:58.244Z,13.66
2023-03-23T16:26:01.551Z,13.71
2023-03-23T16:31:05.912Z,13.73
2023-03-23T16:36:12.988Z,13.76
2023-03-23T16:41:16.607Z,13.68
2023-03-23T16:46:20.316Z,13.60
2023-03-23T16:51:24.142Z,13.53
2023-03-23T16:56:27.580Z,13.43
2023-03-23T17:01:31.238Z,13.34
2023-03-23T17:06:34.790Z,13.27
2023-03-23T17:11:38.203Z,13.22
2023-03-23T17:16:41.682Z,13.19
2023-03-23T17:21:45.438Z,13.14
2023-03-23T17:26:48.749Z,13.10
2023-03-23T17:31:52.835Z,13.06
2023-03-23T17:36:56.194Z,13.04
2023-03-23T17:42:01.090Z,13.03
2023-03-23T17:47:04.708Z,12.99
2023-03-23T17:52:07.967Z,12.98
2023-03-23T17:57:11.838Z,12.94
2023-03-23T18:02:15.745Z,12.90
2023-03-23T18:07:23.750Z,12.86
2023-03-23T18:12:27.455Z,12.84
2023-03-23T18:17:31.083Z,12.81
2023-03-23T18:22:34.632Z,12.79
2023-03-23T18:27:38.310Z,12.73
2023-03-23T18:32:42.050Z,12.66
2023-03-23T18:37:48.116Z,12.64
2023-03-23T18:42:51.521Z,12.61
2023-03-23T18:47:55.081Z,12.61
2023-03-23T18:53:00.305Z,12.60
2023-03-23T18:58:04.565Z,12.60
2023-03-23T19:03:08.385Z,12.60
2023-03-23T19:08:12.078Z,12.59
2023-03-23T19:13:17.436Z,12.61
2023-03-23T19:18:21.768Z,12.57
2023-03-23T19:23:25.485Z,12.56
2023-03-23T19:33:35.898Z,12.59
2023-03-23T19:38:39.217Z,12.65
2023-03-23T19:43:43.542Z,12.73
2023-03-23T19:48:48.050Z,12.79
2023-03-23T19:53:52.321Z,12.88
2023-03-23T19:58:55.630Z,12.90
2023-03-23T20:04:00.314Z,12.88
2023-03-23T20:09:06.753Z,12.84
2023-03-23T20:14:11.095Z,12.83
2023-03-23T20:19:14.503Z,12.81
2023-03-23T20:24:18.017Z,12.82
2023-03-23T20:29:21.630Z,12.69
2023-03-23T20:34:31.716Z,12.45
2023-03-23T20:39:36.853Z,12.22
2023-03-23T20:44:41.857Z,11.82
2023-03-23T20:49:53.345Z,11.48
2023-03-23T20:54:57.340Z,11.26
2023-03-23T21:00:00.857Z,11.11
2023-03-23T21:05:05.299Z,10.99
2023-03-23T21:10:09.234Z,10.92
2023-03-23T21:15:13.045Z,10.89
2023-03-23T21:20:16.447Z,10.87
2023-03-23T21:25:22.345Z,10.86
2023-03-23T21:30:42.163Z,10.86
2023-03-23T21:35:45.950Z,10.86
2023-03-23T21:40:49.448Z,10.83
2023-03-23T21:45:56.354Z,10.79
2023-03-23T21:51:08.231Z,10.74
2023-03-23T21:56:12.082Z,10.68
2023-03-23T22:01:16.445Z,10.64
2023-03-23T22:06:31.305Z,10.63
2023-03-23T22:11:34.922Z,10.63
2023-03-23T22:16:38.261Z,10.59
2023-03-23T22:21:42.055Z,10.56
2023-03-23T22:26:46.213Z,10.54
2023-03-23T22:31:49.644Z,10.51
2023-03-23T22:36:53.114Z,10.52
2023-03-23T22:41:56.320Z,10.52
2023-03-23T22:46:59.937Z,10.46
2023-03-23T22:52:03.762Z,10.42
2023-03-23T22:57:07.099Z,10.38
2023-03-23T23:02:10.589Z,10.36
2023-03-23T23:07:14.829Z,10.31
2023-03-23T23:12:19.155Z,10.34
2023-03-23T23:17:22.259Z,10.33
2023-03-23T23:22:26.796Z,10.25
2023-03-23T23:27:30.114Z,10.22
2023-03-23T23:32:34.019Z,10.19
2023-03-23T23:37:37.556Z,10.08
2023-03-23T23:42:41.906Z,10.04
2023-03-23T23:47:46.186Z,10.07
2023-03-23T23:52:50.353Z,10.00
2023-03-23T23:57:54.173Z,9.90
